sensor_id;sensor_type;location;lat;lon;timestamp;P1;durP1;ratioP1;P2;durP2;ratioP2
64543;SDS011;50936;51.660;5.616;2024-03-02T00:00:30;3.05;;;1.45;;
64543;SDS011;50936;51.660;5.616;2024-03-02T00:03:18;8.07;;;1.50;;
64543;SDS011;50936;51.660;5.616;2024-03-02T00:06:07;3.65;;;1.55;;
64543;SDS011;50936;51.660;5.616;2024-03-02T00:08:56;5.75;;;1.50;;
64543;SDS011;50936;51.660;5.616;2024-03-02T00:11:45;2.47;;;1.20;;
64543;SDS011;50936;51.660;5.616;2024-03-02T00:14:33;4.63;;;1.50;;
64543;SDS011;50936;51.660;5.616;2024-03-02T00:17:24;3.80;;;1.50;;
64543;SDS011;50936;51.660;5.616;2024-03-02T00:20:15;3.45;;;1.40;;
64543;SDS011;50936;51.660;5.616;2024-03-02T00:23:09;2.10;;;1.20;;
64543;SDS011;50936;51.660;5.616;2024-03-02T00:26:01;3.30;;;1.20;;
64543;SDS011;50936;51.660;5.616;2024-03-02T00:28:49;3.38;;;1.20;;
64543;SDS011;50936;51.660;5.616;2024-03-02T00:31:41;6.22;;;1.50;;
64543;SDS011;50936;51.660;5.616;2024-03-02T00:34:28;2.60;;;1.00;;
64543;SDS011;50936;51.660;5.616;2024-03-02T00:37:16;1.50;;;0.82;;
64543;SDS011;50936;51.660;5.616;2024-03-02T00:40:03;1.02;;;0.60;;
64543;SDS011;50936;51.660;5.616;2024-03-02T00:42:52;0.93;;;0.52;;
64543;SDS011;50936;51.660;5.616;2024-03-02T00:45:39;2.92;;;0.60;;
64543;SDS011;50936;51.660;5.616;2024-03-02T00:48:27;0.55;;;0.50;;
64543;SDS011;50936;51.660;5.616;2024-03-02T00:51:18;0.70;;;0.43;;
64543;SDS011;50936;51.660;5.616;2024-03-02T00:54:07;0.98;;;0.50;;
64543;SDS011;50936;51.660;5.616;2024-03-02T00:56:57;0.82;;;0.50;;
64543;SDS011;50936;51.660;5.616;2024-03-02T00:59:44;1.20;;;0.80;;
64543;SDS011;50936;51.660;5.616;2024-03-02T01:02:33;3.50;;;0.52;;
64543;SDS011;50936;51.660;5.616;2024-03-02T01:05:20;0.60;;;0.40;;
64543;SDS011;50936;51.660;5.616;2024-03-02T01:08:07;0.55;;;0.43;;
64543;SDS011;50936;51.660;5.616;2024-03-02T01:10:55;0.60;;;0.40;;
64543;SDS011;50936;51.660;5.616;2024-03-02T01:13:43;3.97;;;1.25;;
64543;SDS011;50936;51.660;5.616;2024-03-02T01:16:34;2.78;;;0.57;;
64543;SDS011;50936;51.660;5.616;2024-03-02T01:19:21;1.10;;;0.60;;
64543;SDS011;50936;51.660;5.616;2024-03-02T01:22:09;1.25;;;0.70;;
64543;SDS011;50936;51.660;5.616;2024-03-02T01:24:57;2.03;;;0.88;;
64543;SDS011;50936;51.660;5.616;2024-03-02T01:27:44;2.88;;;0.73;;
64543;SDS011;50936;51.660;5.616;2024-03-02T01:30:36;0.90;;;0.70;;
64543;SDS011;50936;51.660;5.616;2024-03-02T01:33:24;1.92;;;0.52;;
64543;SDS011;50936;51.660;5.616;2024-03-02T01:36:12;0.90;;;0.60;;
64543;SDS011;50936;51.660;5.616;2024-03-02T01:39:00;2.38;;;0.70;;
64543;SDS011;50936;51.660;5.616;2024-03-02T01:41:47;1.85;;;0.60;;
64543;SDS011;50936;51.660;5.616;2024-03-02T01:44:34;0.60;;;0.50;;
64543;SDS011;50936;51.660;5.616;2024-03-02T01:47:22;0.95;;;0.70;;
64543;SDS011;50936;51.660;5.616;2024-03-02T01:50:10;1.83;;;0.60;;
64543;SDS011;50936;51.660;5.616;2024-03-02T01:52:59;0.63;;;0.50;;
64543;SDS011;50936;51.660;5.616;2024-03-02T01:55:47;1.35;;;0.60;;
64543;SDS011;50936;51.660;5.616;2024-03-02T01:58:34;2.05;;;0.63;;
64543;SDS011;50936;51.660;5.616;2024-03-02T02:01:22;1.15;;;0.60;;
64543;SDS011;50936;51.660;5.616;2024-03-02T02:04:10;0.60;;;0.57;;
64543;SDS011;50936;51.660;5.616;2024-03-02T02:06:58;1.00;;;0.52;;
64543;SDS011;50936;51.660;5.616;2024-03-02T02:09:46;2.58;;;0.70;;
64543;SDS011;50936;51.660;5.616;2024-03-02T02:12:33;0.32;;;0.30;;
64543;SDS011;50936;51.660;5.616;2024-03-02T02:18:16;0.52;;;0.50;;
64543;SDS011;50936;51.660;5.616;2024-03-02T02:21:04;0.47;;;0.47;;
64543;SDS011;50936;51.660;5.616;2024-03-02T02:23:51;1.25;;;0.52;;
64543;SDS011;50936;51.660;5.616;2024-03-02T02:26:38;1.33;;;0.70;;
64543;SDS011;50936;51.660;5.616;2024-03-02T02:29:26;0.45;;;0.45;;
64543;SDS011;50936;51.660;5.616;2024-03-02T02:32:13;0.50;;;0.50;;
64543;SDS011;50936;51.660;5.616;2024-03-02T02:35:00;1.00;;;0.60;;
64543;SDS011;50936;51.660;5.616;2024-03-02T02:37:49;1.10;;;0.50;;
64543;SDS011;50936;51.660;5.616;2024-03-02T02:40:37;2.90;;;0.70;;
64543;SDS011;50936;51.660;5.616;2024-03-02T02:43:25;1.52;;;0.50;;
64543;SDS011;50936;51.660;5.616;2024-03-02T02:46:12;1.40;;;0.60;;
64543;SDS011;50936;51.660;5.616;2024-03-02T02:48:59;1.00;;;0.50;;
64543;SDS011;50936;51.660;5.616;2024-03-02T02:51:46;0.73;;;0.68;;
64543;SDS011;50936;51.660;5.616;2024-03-02T02:54:33;1.08;;;0.35;;
64543;SDS011;50936;51.660;5.616;2024-03-02T02:57:20;3.15;;;0.80;;
64543;SDS011;50936;51.660;5.616;2024-03-02T03:00:09;2.88;;;0.50;;
64543;SDS011;50936;51.660;5.616;2024-03-02T03:03:00;0.95;;;0.50;;
64543;SDS011;50936;51.660;5.616;2024-03-02T03:05:48;0.65;;;0.52;;
64543;SDS011;50936;51.660;5.616;2024-03-02T03:08:36;0.90;;;0.47;;
64543;SDS011;50936;51.660;5.616;2024-03-02T03:11:23;1.40;;;0.50;;
64543;SDS011;50936;51.660;5.616;2024-03-02T03:14:13;0.57;;;0.57;;
64543;SDS011;50936;51.660;5.616;2024-03-02T03:17:00;0.45;;;0.43;;
64543;SDS011;50936;51.660;5.616;2024-03-02T03:19:47;2.35;;;0.55;;
64543;SDS011;50936;51.660;5.616;2024-03-02T03:22:36;1.08;;;0.57;;
64543;SDS011;50936;51.660;5.616;2024-03-02T03:25:24;1.95;;;0.68;;
64543;SDS011;50936;51.660;5.616;2024-03-02T03:28:11;0.85;;;0.55;;
64543;SDS011;50936;51.660;5.616;2024-03-02T03:30:58;0.50;;;0.43;;
64543;SDS011;50936;51.660;5.616;2024-03-02T03:33:46;0.93;;;0.50;;
64543;SDS011;50936;51.660;5.616;2024-03-02T03:36:33;0.90;;;0.35;;
64543;SDS011;50936;51.660;5.616;2024-03-02T03:39:20;1.23;;;0.55;;
64543;SDS011;50936;51.660;5.616;2024-03-02T03:42:07;0.75;;;0.40;;
64543;SDS011;50936;51.660;5.616;2024-03-02T03:44:55;0.93;;;0.30;;
64543;SDS011;50936;51.660;5.616;2024-03-02T03:47:42;1.20;;;0.50;;
64543;SDS011;50936;51.660;5.616;2024-03-02T03:50:30;0.47;;;0.40;;
64543;SDS011;50936;51.660;5.616;2024-03-02T03:53:17;0.40;;;0.40;;
64543;SDS011;50936;51.660;5.616;2024-03-02T03:56:04;1.05;;;0.73;;
64543;SDS011;50936;51.660;5.616;2024-03-02T03:58:52;0.75;;;0.50;;
64543;SDS011;50936;51.660;5.616;2024-03-02T04:01:39;1.20;;;0.60;;
64543;SDS011;50936;51.660;5.616;2024-03-02T04:04:26;0.65;;;0.60;;
64543;SDS011;50936;51.660;5.616;2024-03-02T04:07:14;0.98;;;0.50;;
64543;SDS011;50936;51.660;5.616;2024-03-02T04:10:01;1.45;;;0.70;;
64543;SDS011;50936;51.660;5.616;2024-03-02T04:12:50;1.58;;;0.60;;
64543;SDS011;50936;51.660;5.616;2024-03-02T04:15:37;0.50;;;0.50;;
64543;SDS011;50936;51.660;5.616;2024-03-02T04:18:24;0.77;;;0.50;;
64543;SDS011;50936;51.660;5.616;2024-03-02T04:21:12;1.10;;;0.63;;
64543;SDS011;50936;51.660;5.616;2024-03-02T04:23:59;1.73;;;0.50;;
64543;SDS011;50936;51.660;5.616;2024-03-02T04:26:47;1.65;;;0.50;;
64543;SDS011;50936;51.660;5.616;2024-03-02T04:29:34;0.70;;;0.47;;
64543;SDS011;50936;51.660;5.616;2024-03-02T04:32:21;1.55;;;0.60;;
64543;SDS011;50936;51.660;5.616;2024-03-02T04:35:08;0.73;;;0.57;;
64543;SDS011;50936;51.660;5.616;2024-03-02T04:37:56;1.00;;;0.47;;
64543;SDS011;50936;51.660;5.616;2024-03-02T04:40:43;0.63;;;0.52;;
64543;SDS011;50936;51.660;5.616;2024-03-02T04:43:31;0.50;;;0.50;;
64543;SDS011;50936;51.660;5.616;2024-03-02T04:46:18;0.55;;;0.55;;
64543;SDS011;50936;51.660;5.616;2024-03-02T04:49:05;1.13;;;0.70;;
64543;SDS011;50936;51.660;5.616;2024-03-02T04:51:53;0.85;;;0.60;;
64543;SDS011;50936;51.660;5.616;2024-03-02T04:54:40;2.25;;;0.73;;
64543;SDS011;50936;51.660;5.616;2024-03-02T04:57:46;1.58;;;0.70;;
64543;SDS011;50936;51.660;5.616;2024-03-02T05:00:34;0.77;;;0.50;;
64543;SDS011;50936;51.660;5.616;2024-03-02T05:03:22;1.45;;;0.60;;
64543;SDS011;50936;51.660;5.616;2024-03-02T05:06:09;0.57;;;0.50;;
64543;SDS011;50936;51.660;5.616;2024-03-02T05:08:56;0.77;;;0.50;;
64543;SDS011;50936;51.660;5.616;2024-03-02T05:11:43;1.40;;;0.45;;
64543;SDS011;50936;51.660;5.616;2024-03-02T05:14:31;2.05;;;0.68;;
64543;SDS011;50936;51.660;5.616;2024-03-02T05:17:18;1.27;;;0.50;;
64543;SDS011;50936;51.660;5.616;2024-03-02T05:20:05;1.45;;;0.60;;
64543;SDS011;50936;51.660;5.616;2024-03-02T05:22:55;0.80;;;0.70;;
64543;SDS011;50936;51.660;5.616;2024-03-02T05:25:42;2.28;;;0.90;;
64543;SDS011;50936;51.660;5.616;2024-03-02T05:28:29;2.15;;;0.65;;
64543;SDS011;50936;51.660;5.616;2024-03-02T05:31:16;0.80;;;0.50;;
64543;SDS011;50936;51.660;5.616;2024-03-02T05:34:04;1.75;;;0.45;;
64543;SDS011;50936;51.660;5.616;2024-03-02T05:36:52;1.85;;;0.50;;
64543;SDS011;50936;51.660;5.616;2024-03-02T05:39:40;2.60;;;0.73;;
64543;SDS011;50936;51.660;5.616;2024-03-02T05:42:27;1.40;;;0.50;;
64543;SDS011;50936;51.660;5.616;2024-03-02T05:45:16;1.10;;;0.47;;
64543;SDS011;50936;51.660;5.616;2024-03-02T05:48:03;1.27;;;0.63;;
64543;SDS011;50936;51.660;5.616;2024-03-02T05:50:51;1.02;;;0.40;;
64543;SDS011;50936;51.660;5.616;2024-03-02T05:53:39;1.63;;;0.60;;
64543;SDS011;50936;51.660;5.616;2024-03-02T05:56:26;1.02;;;0.65;;
64543;SDS011;50936;51.660;5.616;2024-03-02T05:59:14;1.30;;;0.68;;
64543;SDS011;50936;51.660;5.616;2024-03-02T06:02:02;2.40;;;0.60;;
64543;SDS011;50936;51.660;5.616;2024-03-02T06:04:50;1.60;;;0.68;;
64543;SDS011;50936;51.660;5.616;2024-03-02T06:07:37;1.08;;;0.60;;
64543;SDS011;50936;51.660;5.616;2024-03-02T06:10:24;2.25;;;0.80;;
64543;SDS011;50936;51.660;5.616;2024-03-02T06:13:12;0.75;;;0.47;;
64543;SDS011;50936;51.660;5.616;2024-03-02T06:15:59;1.75;;;0.60;;
64543;SDS011;50936;51.660;5.616;2024-03-02T06:18:46;0.98;;;0.50;;
64543;SDS011;50936;51.660;5.616;2024-03-02T06:21:34;0.80;;;0.50;;
64543;SDS011;50936;51.660;5.616;2024-03-02T06:24:21;1.77;;;0.70;;
64543;SDS011;50936;51.660;5.616;2024-03-02T06:27:08;3.60;;;0.60;;
64543;SDS011;50936;51.660;5.616;2024-03-02T06:29:55;2.35;;;0.60;;
64543;SDS011;50936;51.660;5.616;2024-03-02T06:32:43;1.95;;;0.50;;
64543;SDS011;50936;51.660;5.616;2024-03-02T06:35:30;2.85;;;0.70;;
64543;SDS011;50936;51.660;5.616;2024-03-02T06:38:17;0.98;;;0.60;;
64543;SDS011;50936;51.660;5.616;2024-03-02T06:41:04;2.25;;;0.60;;
64543;SDS011;50936;51.660;5.616;2024-03-02T06:43:52;0.60;;;0.60;;
64543;SDS011;50936;51.660;5.616;2024-03-02T06:46:46;1.75;;;0.75;;
64543;SDS011;50936;51.660;5.616;2024-03-02T06:49:33;2.17;;;0.60;;
64543;SDS011;50936;51.660;5.616;2024-03-02T06:52:22;1.40;;;0.57;;
64543;SDS011;50936;51.660;5.616;2024-03-02T06:55:11;1.80;;;0.63;;
64543;SDS011;50936;51.660;5.616;2024-03-02T06:57:58;2.17;;;0.60;;
64543;SDS011;50936;51.660;5.616;2024-03-02T07:00:45;1.02;;;0.70;;
64543;SDS011;50936;51.660;5.616;2024-03-02T07:03:34;1.25;;;0.65;;
64543;SDS011;50936;51.660;5.616;2024-03-02T07:06:21;1.35;;;0.68;;
64543;SDS011;50936;51.660;5.616;2024-03-02T07:09:09;1.33;;;0.70;;
64543;SDS011;50936;51.660;5.616;2024-03-02T07:11:58;1.55;;;0.40;;
64543;SDS011;50936;51.660;5.616;2024-03-02T07:14:45;1.80;;;1.25;;
64543;SDS011;50936;51.660;5.616;2024-03-02T07:17:50;1.42;;;0.50;;
64543;SDS011;50936;51.660;5.616;2024-03-02T07:20:38;2.22;;;0.70;;
64543;SDS011;50936;51.660;5.616;2024-03-02T07:23:26;1.17;;;0.50;;
64543;SDS011;50936;51.660;5.616;2024-03-02T07:26:14;1.80;;;0.70;;
64543;SDS011;50936;51.660;5.616;2024-03-02T07:29:04;4.47;;;1.23;;
64543;SDS011;50936;51.660;5.616;2024-03-02T07:31:52;1.25;;;0.73;;
64543;SDS011;50936;51.660;5.616;2024-03-02T07:34:39;3.75;;;0.88;;
64543;SDS011;50936;51.660;5.616;2024-03-02T07:37:26;1.40;;;0.60;;
64543;SDS011;50936;51.660;5.616;2024-03-02T07:40:14;2.63;;;0.90;;
64543;SDS011;50936;51.660;5.616;2024-03-02T07:43:01;4.07;;;0.93;;
64543;SDS011;50936;51.660;5.616;2024-03-02T07:45:49;1.95;;;0.60;;
64543;SDS011;50936;51.660;5.616;2024-03-02T07:48:36;4.60;;;0.90;;
64543;SDS011;50936;51.660;5.616;2024-03-02T07:51:24;2.13;;;0.70;;
64543;SDS011;50936;51.660;5.616;2024-03-02T07:54:11;0.98;;;0.70;;
64543;SDS011;50936;51.660;5.616;2024-03-02T07:56:58;1.17;;;0.63;;
64543;SDS011;50936;51.660;5.616;2024-03-02T07:59:46;4.50;;;0.60;;
64543;SDS011;50936;51.660;5.616;2024-03-02T08:02:34;3.38;;;0.82;;
64543;SDS011;50936;51.660;5.616;2024-03-02T08:05:22;2.95;;;1.00;;
64543;SDS011;50936;51.660;5.616;2024-03-02T08:08:09;3.63;;;0.80;;
64543;SDS011;50936;51.660;5.616;2024-03-02T08:10:56;2.25;;;0.65;;
64543;SDS011;50936;51.660;5.616;2024-03-02T08:13:45;4.63;;;0.80;;
64543;SDS011;50936;51.660;5.616;2024-03-02T08:16:33;2.33;;;0.77;;
64543;SDS011;50936;51.660;5.616;2024-03-02T08:19:20;2.85;;;0.73;;
64543;SDS011;50936;51.660;5.616;2024-03-02T08:22:08;1.83;;;1.10;;
64543;SDS011;50936;51.660;5.616;2024-03-02T08:24:55;0.90;;;0.63;;
64543;SDS011;50936;51.660;5.616;2024-03-02T08:27:42;3.03;;;0.85;;
64543;SDS011;50936;51.660;5.616;2024-03-02T08:30:30;2.10;;;0.80;;
64543;SDS011;50936;51.660;5.616;2024-03-02T08:33:17;4.10;;;0.90;;
64543;SDS011;50936;51.660;5.616;2024-03-02T08:36:05;2.67;;;0.80;;
64543;SDS011;50936;51.660;5.616;2024-03-02T08:38:53;2.53;;;0.90;;
64543;SDS011;50936;51.660;5.616;2024-03-02T08:41:49;4.43;;;0.93;;
64543;SDS011;50936;51.660;5.616;2024-03-02T08:44:37;4.45;;;0.90;;
64543;SDS011;50936;51.660;5.616;2024-03-02T08:47:24;1.45;;;0.80;;
64543;SDS011;50936;51.660;5.616;2024-03-02T08:50:11;1.38;;;0.77;;
64543;SDS011;50936;51.660;5.616;2024-03-02T08:52:59;2.53;;;0.90;;
64543;SDS011;50936;51.660;5.616;2024-03-02T08:55:46;3.60;;;0.88;;
64543;SDS011;50936;51.660;5.616;2024-03-02T08:58:34;2.33;;;0.90;;
64543;SDS011;50936;51.660;5.616;2024-03-02T09:01:21;2.15;;;0.75;;
64543;SDS011;50936;51.660;5.616;2024-03-02T09:04:08;3.28;;;0.90;;
64543;SDS011;50936;51.660;5.616;2024-03-02T09:06:56;2.92;;;0.82;;
64543;SDS011;50936;51.660;5.616;2024-03-02T09:09:43;3.85;;;1.05;;
64543;SDS011;50936;51.660;5.616;2024-03-02T09:12:30;3.25;;;1.17;;
64543;SDS011;50936;51.660;5.616;2024-03-02T09:15:18;4.00;;;0.65;;
64543;SDS011;50936;51.660;5.616;2024-03-02T09:18:06;1.63;;;0.80;;
64543;SDS011;50936;51.660;5.616;2024-03-02T09:20:53;2.88;;;0.85;;
64543;SDS011;50936;51.660;5.616;2024-03-02T09:23:41;2.95;;;0.70;;
64543;SDS011;50936;51.660;5.616;2024-03-02T09:26:28;1.65;;;0.68;;
64543;SDS011;50936;51.660;5.616;2024-03-02T09:29:15;2.92;;;0.90;;
64543;SDS011;50936;51.660;5.616;2024-03-02T09:32:03;2.22;;;0.80;;
64543;SDS011;50936;51.660;5.616;2024-03-02T09:34:52;2.67;;;0.88;;
64543;SDS011;50936;51.660;5.616;2024-03-02T09:37:40;1.33;;;0.57;;
64543;SDS011;50936;51.660;5.616;2024-03-02T09:40:27;2.42;;;0.90;;
64543;SDS011;50936;51.660;5.616;2024-03-02T09:43:15;2.78;;;0.60;;
64543;SDS011;50936;51.660;5.616;2024-03-02T09:46:03;2.88;;;1.35;;
64543;SDS011;50936;51.660;5.616;2024-03-02T09:48:50;4.18;;;0.80;;
64543;SDS011;50936;51.660;5.616;2024-03-02T09:51:38;3.53;;;0.85;;
64543;SDS011;50936;51.660;5.616;2024-03-02T09:54:27;3.92;;;1.33;;
64543;SDS011;50936;51.660;5.616;2024-03-02T09:57:15;4.07;;;0.93;;
64543;SDS011;50936;51.660;5.616;2024-03-02T10:00:02;3.42;;;0.65;;
64543;SDS011;50936;51.660;5.616;2024-03-02T10:02:51;2.97;;;0.93;;
64543;SDS011;50936;51.660;5.616;2024-03-02T10:05:39;3.83;;;0.82;;
64543;SDS011;50936;51.660;5.616;2024-03-02T10:08:26;7.88;;;0.95;;
64543;SDS011;50936;51.660;5.616;2024-03-02T10:14:23;2.88;;;0.80;;
64543;SDS011;50936;51.660;5.616;2024-03-02T10:17:12;2.90;;;0.88;;
64543;SDS011;50936;51.660;5.616;2024-03-02T10:20:20;3.00;;;0.80;;
64543;SDS011;50936;51.660;5.616;2024-03-02T10:23:14;2.65;;;0.80;;
64543;SDS011;50936;51.660;5.616;2024-03-02T10:26:08;2.63;;;0.75;;
64543;SDS011;50936;51.660;5.616;2024-03-02T10:29:05;1.85;;;0.80;;
64543;SDS011;50936;51.660;5.616;2024-03-02T10:31:52;2.75;;;0.90;;
64543;SDS011;50936;51.660;5.616;2024-03-02T10:34:41;7.13;;;1.13;;
64543;SDS011;50936;51.660;5.616;2024-03-02T10:37:31;2.78;;;0.90;;
64543;SDS011;50936;51.660;5.616;2024-03-02T10:40:22;1.63;;;0.80;;
64543;SDS011;50936;51.660;5.616;2024-03-02T10:45:58;2.50;;;0.70;;
64543;SDS011;50936;51.660;5.616;2024-03-02T10:48:46;2.47;;;0.80;;
64543;SDS011;50936;51.660;5.616;2024-03-02T10:51:33;5.50;;;1.10;;
64543;SDS011;50936;51.660;5.616;2024-03-02T10:54:23;2.50;;;0.80;;
64543;SDS011;50936;51.660;5.616;2024-03-02T10:57:13;4.78;;;1.25;;
64543;SDS011;50936;51.660;5.616;2024-03-02T11:00:07;3.72;;;0.77;;
64543;SDS011;50936;51.660;5.616;2024-03-02T11:03:05;3.22;;;1.10;;
64543;SDS011;50936;51.660;5.616;2024-03-02T11:05:57;2.85;;;1.15;;
64543;SDS011;50936;51.660;5.616;2024-03-02T11:08:47;5.40;;;1.40;;
64543;SDS011;50936;51.660;5.616;2024-03-02T11:11:42;5.22;;;1.27;;
64543;SDS011;50936;51.660;5.616;2024-03-02T11:14:32;3.20;;;1.05;;
64543;SDS011;50936;51.660;5.616;2024-03-02T11:17:20;5.30;;;1.42;;
64543;SDS011;50936;51.660;5.616;2024-03-02T11:20:08;4.43;;;0.98;;
64543;SDS011;50936;51.660;5.616;2024-03-02T11:22:57;2.83;;;1.00;;
64543;SDS011;50936;51.660;5.616;2024-03-02T11:25:44;2.70;;;0.88;;
64543;SDS011;50936;51.660;5.616;2024-03-02T11:28:34;3.08;;;1.15;;
64543;SDS011;50936;51.660;5.616;2024-03-02T11:31:47;2.35;;;1.00;;
64543;SDS011;50936;51.660;5.616;2024-03-02T11:34:46;4.22;;;0.82;;
64543;SDS011;50936;51.660;5.616;2024-03-02T11:37:36;5.68;;;1.10;;
64543;SDS011;50936;51.660;5.616;2024-03-02T11:40:26;2.83;;;0.85;;
64543;SDS011;50936;51.660;5.616;2024-03-02T11:43:15;2.08;;;0.93;;
64543;SDS011;50936;51.660;5.616;2024-03-02T11:46:03;2.05;;;0.88;;
64543;SDS011;50936;51.660;5.616;2024-03-02T11:48:56;3.55;;;0.70;;
64543;SDS011;50936;51.660;5.616;2024-03-02T11:51:53;3.38;;;0.90;;
64543;SDS011;50936;51.660;5.616;2024-03-02T11:54:49;3.10;;;1.08;;
64543;SDS011;50936;51.660;5.616;2024-03-02T11:57:38;3.45;;;0.90;;
64543;SDS011;50936;51.660;5.616;2024-03-02T12:00:25;4.32;;;0.95;;
64543;SDS011;50936;51.660;5.616;2024-03-02T12:03:13;3.63;;;1.10;;
64543;SDS011;50936;51.660;5.616;2024-03-02T12:06:01;3.83;;;1.10;;
64543;SDS011;50936;51.660;5.616;2024-03-02T12:08:52;3.90;;;0.90;;
64543;SDS011;50936;51.660;5.616;2024-03-02T12:11:41;3.42;;;0.70;;
64543;SDS011;50936;51.660;5.616;2024-03-02T12:14:29;5.03;;;1.08;;
64543;SDS011;50936;51.660;5.616;2024-03-02T12:17:17;3.38;;;1.15;;
64543;SDS011;50936;51.660;5.616;2024-03-02T12:20:05;4.95;;;1.55;;
64543;SDS011;50936;51.660;5.616;2024-03-02T12:22:54;3.78;;;1.30;;
64543;SDS011;50936;51.660;5.616;2024-03-02T12:25:45;6.00;;;1.70;;
64543;SDS011;50936;51.660;5.616;2024-03-02T12:28:33;4.35;;;1.35;;
64543;SDS011;50936;51.660;5.616;2024-03-02T12:31:21;3.92;;;1.30;;
64543;SDS011;50936;51.660;5.616;2024-03-02T12:34:08;4.78;;;1.40;;
64543;SDS011;50936;51.660;5.616;2024-03-02T12:36:56;5.80;;;1.42;;
64543;SDS011;50936;51.660;5.616;2024-03-02T12:39:46;3.92;;;1.42;;
64543;SDS011;50936;51.660;5.616;2024-03-02T12:42:34;4.53;;;1.23;;
64543;SDS011;50936;51.660;5.616;2024-03-02T12:45:22;6.88;;;1.40;;
64543;SDS011;50936;51.660;5.616;2024-03-02T12:48:13;6.22;;;1.45;;
64543;SDS011;50936;51.660;5.616;2024-03-02T12:51:01;4.00;;;1.45;;
64543;SDS011;50936;51.660;5.616;2024-03-02T12:53:55;6.20;;;1.20;;
64543;SDS011;50936;51.660;5.616;2024-03-02T12:56:44;3.42;;;0.95;;
64543;SDS011;50936;51.660;5.616;2024-03-02T12:59:33;4.57;;;1.35;;
64543;SDS011;50936;51.660;5.616;2024-03-02T13:02:20;5.57;;;1.17;;
64543;SDS011;50936;51.660;5.616;2024-03-02T13:05:08;4.13;;;1.02;;
64543;SDS011;50936;51.660;5.616;2024-03-02T13:07:58;2.92;;;0.98;;
64543;SDS011;50936;51.660;5.616;2024-03-02T13:10:46;3.50;;;1.20;;
64543;SDS011;50936;51.660;5.616;2024-03-02T13:13:34;2.95;;;0.90;;
64543;SDS011;50936;51.660;5.616;2024-03-02T13:16:22;3.78;;;1.30;;
64543;SDS011;50936;51.660;5.616;2024-03-02T13:19:18;2.78;;;1.10;;
64543;SDS011;50936;51.660;5.616;2024-03-02T13:22:08;4.53;;;1.00;;
64543;SDS011;50936;51.660;5.616;2024-03-02T13:24:56;1.83;;;1.08;;
64543;SDS011;50936;51.660;5.616;2024-03-02T13:27:44;2.97;;;1.10;;
64543;SDS011;50936;51.660;5.616;2024-03-02T13:30:33;3.13;;;0.90;;
64543;SDS011;50936;51.660;5.616;2024-03-02T13:33:20;2.90;;;1.02;;
64543;SDS011;50936;51.660;5.616;2024-03-02T13:36:09;4.22;;;1.42;;
64543;SDS011;50936;51.660;5.616;2024-03-02T13:38:56;4.28;;;1.05;;
64543;SDS011;50936;51.660;5.616;2024-03-02T13:41:47;3.92;;;0.93;;
64543;SDS011;50936;51.660;5.616;2024-03-02T13:44:40;3.35;;;0.93;;
64543;SDS011;50936;51.660;5.616;2024-03-02T13:47:32;3.72;;;1.20;;
64543;SDS011;50936;51.660;5.616;2024-03-02T13:50:19;3.45;;;1.25;;
64543;SDS011;50936;51.660;5.616;2024-03-02T13:53:07;4.63;;;1.20;;
64543;SDS011;50936;51.660;5.616;2024-03-02T13:55:55;4.78;;;1.30;;
64543;SDS011;50936;51.660;5.616;2024-03-02T13:58:43;4.25;;;0.90;;
64543;SDS011;50936;51.660;5.616;2024-03-02T14:01:33;3.08;;;1.10;;
64543;SDS011;50936;51.660;5.616;2024-03-02T14:04:21;3.22;;;1.20;;
64543;SDS011;50936;51.660;5.616;2024-03-02T14:07:08;4.90;;;1.45;;
64543;SDS011;50936;51.660;5.616;2024-03-02T14:09:56;2.13;;;0.93;;
64543;SDS011;50936;51.660;5.616;2024-03-02T14:12:45;4.60;;;1.17;;
64543;SDS011;50936;51.660;5.616;2024-03-02T14:15:32;4.00;;;1.20;;
64543;SDS011;50936;51.660;5.616;2024-03-02T14:18:19;5.43;;;1.88;;
64543;SDS011;50936;51.660;5.616;2024-03-02T14:21:08;5.03;;;1.48;;
64543;SDS011;50936;51.660;5.616;2024-03-02T14:23:55;3.25;;;1.10;;
64543;SDS011;50936;51.660;5.616;2024-03-02T14:26:42;3.75;;;1.10;;
64543;SDS011;50936;51.660;5.616;2024-03-02T14:29:29;2.75;;;1.10;;
64543;SDS011;50936;51.660;5.616;2024-03-02T14:32:17;2.78;;;0.98;;
64543;SDS011;50936;51.660;5.616;2024-03-02T14:35:04;2.50;;;1.05;;
64543;SDS011;50936;51.660;5.616;2024-03-02T14:37:52;3.58;;;0.90;;
64543;SDS011;50936;51.660;5.616;2024-03-02T14:40:39;3.80;;;1.00;;
64543;SDS011;50936;51.660;5.616;2024-03-02T14:43:27;1.85;;;1.10;;
64543;SDS011;50936;51.660;5.616;2024-03-02T14:46:14;4.22;;;1.30;;
64543;SDS011;50936;51.660;5.616;2024-03-02T14:49:03;4.47;;;1.08;;
64543;SDS011;50936;51.660;5.616;2024-03-02T14:51:51;4.82;;;1.02;;
64543;SDS011;50936;51.660;5.616;2024-03-02T14:54:38;2.97;;;1.00;;
64543;SDS011;50936;51.660;5.616;2024-03-02T14:57:26;3.65;;;0.93;;
64543;SDS011;50936;51.660;5.616;2024-03-02T15:00:13;2.97;;;1.00;;
64543;SDS011;50936;51.660;5.616;2024-03-02T15:03:01;3.10;;;1.10;;
64543;SDS011;50936;51.660;5.616;2024-03-02T15:05:50;4.30;;;1.60;;
64543;SDS011;50936;51.660;5.616;2024-03-02T15:08:38;3.90;;;1.30;;
64543;SDS011;50936;51.660;5.616;2024-03-02T15:11:28;4.25;;;1.63;;
64543;SDS011;50936;51.660;5.616;2024-03-02T15:14:16;2.05;;;0.95;;
64543;SDS011;50936;51.660;5.616;2024-03-02T15:17:04;1.70;;;1.00;;
64543;SDS011;50936;51.660;5.616;2024-03-02T15:19:51;3.75;;;1.10;;
64543;SDS011;50936;51.660;5.616;2024-03-02T15:22:39;2.75;;;1.10;;
64543;SDS011;50936;51.660;5.616;2024-03-02T15:25:26;2.35;;;0.90;;
64543;SDS011;50936;51.660;5.616;2024-03-02T15:28:13;4.47;;;1.08;;
64543;SDS011;50936;51.660;5.616;2024-03-02T15:31:01;3.35;;;1.20;;
64543;SDS011;50936;51.660;5.616;2024-03-02T15:33:48;2.00;;;0.88;;
64543;SDS011;50936;51.660;5.616;2024-03-02T15:36:36;2.88;;;1.20;;
64543;SDS011;50936;51.660;5.616;2024-03-02T15:39:24;2.05;;;0.90;;
64543;SDS011;50936;51.660;5.616;2024-03-02T15:42:11;2.55;;;1.08;;
64543;SDS011;50936;51.660;5.616;2024-03-02T15:44:59;2.58;;;0.98;;
64543;SDS011;50936;51.660;5.616;2024-03-02T15:47:46;2.55;;;1.10;;
64543;SDS011;50936;51.660;5.616;2024-03-02T15:50:34;2.55;;;1.10;;
64543;SDS011;50936;51.660;5.616;2024-03-02T15:53:23;2.67;;;1.20;;
64543;SDS011;50936;51.660;5.616;2024-03-02T15:56:10;3.63;;;1.30;;
64543;SDS011;50936;51.660;5.616;2024-03-02T15:58:59;1.92;;;1.00;;
64543;SDS011;50936;51.660;5.616;2024-03-02T16:01:47;3.92;;;1.20;;
64543;SDS011;50936;51.660;5.616;2024-03-02T16:04:34;3.60;;;1.60;;
64543;SDS011;50936;51.660;5.616;2024-03-02T16:07:21;3.55;;;1.20;;
64543;SDS011;50936;51.660;5.616;2024-03-02T16:10:09;2.42;;;1.00;;
64543;SDS011;50936;51.660;5.616;2024-03-02T16:12:57;2.50;;;1.27;;
64543;SDS011;50936;51.660;5.616;2024-03-02T16:15:47;3.40;;;1.38;;
64543;SDS011;50936;51.660;5.616;2024-03-02T16:18:34;3.13;;;1.42;;
64543;SDS011;50936;51.660;5.616;2024-03-02T16:21:21;2.08;;;1.45;;
64543;SDS011;50936;51.660;5.616;2024-03-02T16:24:12;2.53;;;1.30;;
64543;SDS011;50936;51.660;5.616;2024-03-02T16:26:59;2.35;;;1.20;;
64543;SDS011;50936;51.660;5.616;2024-03-02T16:29:46;3.20;;;1.33;;
64543;SDS011;50936;51.660;5.616;2024-03-02T16:32:34;3.60;;;1.63;;
64543;SDS011;50936;51.660;5.616;2024-03-02T16:35:22;3.47;;;1.60;;
64543;SDS011;50936;51.660;5.616;2024-03-02T16:38:09;2.17;;;1.20;;
64543;SDS011;50936;51.660;5.616;2024-03-02T16:40:57;3.60;;;1.40;;
64543;SDS011;50936;51.660;5.616;2024-03-02T16:43:44;2.58;;;1.30;;
64543;SDS011;50936;51.660;5.616;2024-03-02T16:46:32;2.92;;;1.50;;
64543;SDS011;50936;51.660;5.616;2024-03-02T16:49:19;3.10;;;1.45;;
64543;SDS011;50936;51.660;5.616;2024-03-02T16:52:07;4.13;;;1.45;;
64543;SDS011;50936;51.660;5.616;2024-03-02T16:54:54;2.35;;;1.40;;
64543;SDS011;50936;51.660;5.616;2024-03-02T16:57:45;6.53;;;1.60;;
64543;SDS011;50936;51.660;5.616;2024-03-02T17:00:33;3.35;;;1.60;;
64543;SDS011;50936;51.660;5.616;2024-03-02T17:03:20;2.22;;;1.40;;